createdAt,value
2023-01-06T00:00:12.089Z,3.3
2023-01-06T00:05:04.088Z,3.4
2023-01-06T00:10:11.874Z,3.4
2023-01-06T00:15:20.002Z,3.6
2023-01-06T00:20:26.943Z,3.6
2023-01-06T00:30:26.848Z,3.8
2023-01-06T00:35:34.492Z,3.9
2023-01-06T00:45:19.266Z,4.1
2023-01-06T00:50:35.666Z,4.3
2023-01-06T00:55:42.580Z,4.4
2023-01-06T01:00:50.508Z,4.5
2023-01-06T01:05:58.404Z,4.6
2023-01-06T01:11:04.653Z,4.8
2023-01-06T01:15:57.548Z,4.9
2023-01-06T01:21:05.324Z,4.9
2023-01-06T01:26:27.509Z,5.1
2023-01-06T01:31:36.144Z,5.2
2023-01-06T01:36:43.495Z,5.3
2023-01-06T01:41:49.989Z,5.4
2023-01-06T01:46:43.027Z,5.5
2023-01-06T01:51:49.708Z,5.6
2023-01-06T01:56:56.495Z,5.7
2023-01-06T02:02:05.473Z,5.8
2023-01-06T02:07:29.408Z,5.8
2023-01-06T02:12:20.375Z,5.9
2023-01-06T02:17:13.143Z,6
2023-01-06T02:22:20.653Z,6.1
2023-01-06T02:27:27.801Z,6.1
2023-01-06T02:32:35.787Z,6.2
2023-01-06T02:37:58.465Z,6.3
2023-01-06T02:47:58.740Z,6.4
2023-01-06T02:53:06.750Z,6.5
2023-01-06T02:57:58.231Z,6.6
2023-01-06T03:03:22.401Z,6.6
2023-01-06T03:08:30.679Z,6.7
2023-01-06T03:13:21.350Z,6.7
2023-01-06T03:18:29.497Z,6.8
2023-01-06T03:23:37.654Z,6.8
2023-01-06T03:28:29.372Z,6.8
2023-01-06T03:33:19.902Z,6.8
2023-01-06T03:38:27.168Z,6.9
2023-01-06T03:43:31.176Z,6.9
2023-01-06T03:48:53.716Z,6.9
2023-01-06T03:54:01.241Z,6.8
2023-01-06T03:59:09.173Z,6.8
2023-01-06T04:03:46.101Z,6.8
2023-01-06T04:08:52.436Z,6.8
2023-01-06T04:13:44.668Z,6.7
2023-01-06T04:18:52.781Z,6.6
2023-01-06T04:23:59.822Z,6.6
2023-01-06T04:29:07.430Z,6.5
2023-01-06T04:39:40.484Z,6.4
2023-01-06T04:45:03.540Z,6.4
2023-01-06T04:50:27.232Z,6.4
2023-01-06T04:55:49.695Z,6.3
2023-01-06T05:01:16.263Z,6.3
2023-01-06T05:06:34.010Z,6.2
2023-01-06T05:11:55.818Z,6.2
2023-01-06T05:17:03.400Z,6.1
2023-01-06T05:26:46.837Z,6.1
2023-01-06T05:31:53.584Z,6.1
2023-01-06T05:37:01.541Z,6
2023-01-06T05:41:53.301Z,6
2023-01-06T05:46:44.342Z,5.9
2023-01-06T05:51:52.182Z,5.9
2023-01-06T05:57:00.771Z,5.9
2023-01-06T06:02:24.211Z,5.8
2023-01-06T06:07:47.769Z,5.8
2023-01-06T06:12:55.566Z,5.8
2023-01-06T06:18:18.531Z,5.7
2023-01-06T06:23:25.751Z,5.7
2023-01-06T06:28:48.462Z,5.8
2023-01-06T06:34:11.563Z,5.9
2023-01-06T06:39:34.148Z,6.2
2023-01-06T06:44:57.708Z,6.6
2023-01-06T06:50:21.100Z,7.2
2023-01-06T06:55:44.358Z,7.7
2023-01-06T07:01:07.887Z,8.4
2023-01-06T07:06:32.061Z,9
2023-01-06T07:11:40.643Z,9.6
2023-01-06T07:16:33.164Z,10.3
2023-01-06T07:21:57.208Z,11.1
2023-01-06T07:27:20.593Z,12.3
2023-01-06T07:32:44.060Z,22.7
2023-01-06T07:38:07.903Z,31.3
2023-01-06T07:43:31.527Z,29.9
2023-01-06T07:48:55.525Z,29.1
2023-01-06T07:54:20.487Z,35.3
2023-01-06T07:59:28.697Z,38.8
2023-01-06T08:04:53.127Z,40.4
2023-01-06T08:10:17.260Z,41.6
2023-01-06T08:15:40.785Z,42.7
2023-01-06T08:20:48.941Z,43.4
2023-01-06T08:26:12.817Z,43.9
2023-01-06T08:31:36.776Z,44.9
2023-01-06T08:37:08.422Z,46.1
2023-01-06T08:42:32.514Z,46.6
2023-01-06T08:47:55.682Z,45.8
2023-01-06T08:53:20.614Z,46.3
2023-01-06T08:58:12.913Z,47.1
2023-01-06T09:03:36.199Z,47.9
2023-01-06T09:08:44.923Z,49.2
2023-01-06T09:14:10.464Z,50.3
2023-01-06T09:19:34.391Z,51.2
2023-01-06T09:24:58.504Z,52
2023-01-06T09:30:06.718Z,51.8
2023-01-06T09:35:30.955Z,52.9
2023-01-06T09:40:54.431Z,53.7
2023-01-06T09:46:18.674Z,54.6
2023-01-06T09:51:26.942Z,54.9
2023-01-06T09:56:34.728Z,55.4
2023-01-06T10:01:59.312Z,55.6
2023-01-06T10:07:23.543Z,55.5
2023-01-06T10:12:47.388Z,55.8
2023-01-06T10:17:55.843Z,56.4
2023-01-06T10:23:19.908Z,57
2023-01-06T10:28:44.047Z,57.3
2023-01-06T10:34:11.437Z,57.6
2023-01-06T10:39:37.825Z,58
2023-01-06T10:45:01.963Z,56.4
2023-01-06T10:50:10.706Z,55.2
2023-01-06T10:55:18.904Z,53.4
2023-01-06T11:06:12.905Z,53.3
2023-01-06T11:11:44.884Z,55.5
2023-01-06T11:17:08.902Z,56.2
2023-01-06T11:22:18.210Z,51.8
2023-01-06T11:27:42.863Z,46.4
2023-01-06T11:33:06.487Z,44.8
2023-01-06T11:38:14.714Z,46.2
2023-01-06T11:43:49.291Z,47.6
2023-01-06T11:49:16.900Z,49.4
2023-01-06T11:54:40.802Z,50.3
2023-01-06T12:00:04.823Z,51.4
2023-01-06T12:05:29.358Z,52.3
2023-01-06T12:10:52.363Z,52.3
2023-01-06T12:16:43.418Z,50.9
2023-01-06T12:27:14.941Z,51.1
2023-01-06T12:32:38.949Z,51.3
2023-01-06T12:37:47.281Z,51.4
2023-01-06T12:43:11.277Z,51.4
2023-01-06T12:48:40.963Z,50.9
2023-01-06T12:54:14.569Z,51.4
2023-01-06T12:59:37.815Z,50.4
2023-01-06T13:04:46.938Z,50.6
2023-01-06T13:10:09.809Z,50.5
2023-01-06T13:15:33.577Z,50.6
2023-01-06T13:20:59.657Z,49.5
2023-01-06T13:26:23.655Z,46.7
2023-01-06T13:31:31.588Z,42.7
2023-01-06T13:36:39.616Z,39.1
2023-01-06T13:42:02.999Z,36.1
2023-01-06T13:47:26.999Z,34.1
2023-01-06T13:52:19.591Z,32
2023-01-06T13:57:43.671Z,29.9
2023-01-06T14:02:53.078Z,28
2023-01-06T14:08:01.492Z,26.7
2023-01-06T14:13:25.272Z,25.3
2023-01-06T14:18:34.035Z,24.1
2023-01-06T14:23:57.409Z,22.6
2023-01-06T14:29:21.157Z,21.7
2023-01-06T14:34:46.139Z,21.3
2023-01-06T14:40:09.694Z,20.6
2023-01-06T14:45:18.044Z,19.9
2023-01-06T14:50:47.720Z,19.3
2023-01-06T14:55:55.671Z,18.6
2023-01-06T15:01:03.647Z,17.9
2023-01-06T15:06:12.039Z,17.2
2023-01-06T15:11:34.759Z,16.6
2023-01-06T15:16:53.734Z,15.9
2023-01-06T15:22:16.424Z,15.3
2023-01-06T15:27:08.872Z,14.7
2023-01-06T15:32:17.460Z,14.1
2023-01-06T15:37:41.263Z,13.6
2023-01-06T15:43:05.503Z,13.1
2023-01-06T15:48:29.089Z,12.6
2023-01-06T15:53:36.459Z,12.1
2023-01-06T15:59:03.854Z,11.7
2023-01-06T16:03:56.770Z,11.3
2023-01-06T16:08:48.142Z,10.9
2023-01-06T16:13:39.119Z,10.4
2023-01-06T16:18:31.355Z,10
2023-01-06T16:23:55.228Z,9.5
2023-01-06T16:29:02.531Z,9.1
2023-01-06T16:34:10.237Z,8.9
2023-01-06T16:39:17.724Z,8.5
2023-01-06T16:44:41.343Z,8.3
2023-01-06T16:49:33.304Z,8.1
2023-01-06T16:54:57.779Z,7.8
2023-01-06T17:00:05.791Z,7.6
2023-01-06T17:05:14.795Z,7.4
2023-01-06T17:10:38.406Z,7.3
2023-01-06T17:16:02.042Z,7.1
2023-01-06T17:21:10.287Z,7
2023-01-06T17:26:33.818Z,6.8
2023-01-06T17:31:41.675Z,6.7
2023-01-06T17:36:49.439Z,6.6
2023-01-06T17:42:13.371Z,6.5
2023-01-06T17:47:05.246Z,6.4
2023-01-06T17:52:27.638Z,6.3
2023-01-06T17:57:19.912Z,6.3
2023-01-06T18:02:43.058Z,6.2
2023-01-06T18:07:50.453Z,6.1
2023-01-06T18:13:14.339Z,6
2023-01-06T18:18:38.419Z,5.9
2023-01-06T18:23:30.854Z,5.9
2023-01-06T18:28:55.833Z,5.8
2023-01-06T18:34:04.046Z,5.7
2023-01-06T18:39:11.788Z,5.7
2023-01-06T18:44:20.821Z,5.6
2023-01-06T18:49:28.736Z,5.6
2023-01-06T18:54:21.014Z,5.6
2023-01-06T19:04:21.631Z,5.4
2023-01-06T19:09:47.376Z,5.3
2023-01-06T19:15:11.694Z,5.3
2023-01-06T19:20:19.135Z,5.2
2023-01-06T19:25:30.384Z,5.1
2023-01-06T19:30:26.280Z,5
2023-01-06T19:35:38.795Z,4.9
2023-01-06T19:40:51.918Z,4.9
2023-01-06T19:46:18.191Z,4.9
2023-01-06T19:51:28.910Z,4.8
2023-01-06T19:56:38.606Z,4.8
2023-01-06T20:01:52.001Z,4.7
2023-01-06T20:07:03.947Z,4.6
2023-01-06T20:12:12.651Z,4.6
2023-01-06T20:17:39.197Z,4.5
2023-01-06T20:22:34.140Z,4.4
2023-01-06T20:28:02.375Z,4.4
2023-01-06T20:38:11.375Z,4.3
2023-01-06T20:43:36.849Z,4.1
2023-01-06T20:48:45.186Z,4.1
2023-01-06T20:54:07.847Z,4
2023-01-06T20:59:15.911Z,3.9
2023-01-06T21:04:26.340Z,3.8
2023-01-06T21:09:33.527Z,3.8
2023-01-06T21:14:41.747Z,3.7
2023-01-06T21:19:34.294Z,3.6
2023-01-06T21:24:57.011Z,3.6
2023-01-06T21:30:20.665Z,3.4
2023-01-06T21:35:28.901Z,3.4
2023-01-06T21:40:20.138Z,3.3
2023-01-06T21:50:36.899Z,3.2
2023-01-06T21:55:44.724Z,3.1
2023-01-06T22:00:52.428Z,3
2023-01-06T22:06:15.788Z,2.9
2023-01-06T22:11:23.748Z,2.7
2023-01-06T22:16:47.787Z,2.6
2023-01-06T22:21:53.830Z,2.4
2023-01-06T22:26:46.764Z,2.4
2023-01-06T22:32:11.050Z,2.3
2023-01-06T22:37:18.186Z,2.2
2023-01-06T22:42:41.403Z,2.1
2023-01-06T22:47:49.937Z,2
2023-01-06T22:52:56.435Z,1.9
2023-01-06T22:57:48.946Z,1.8
2023-01-06T23:03:14.588Z,1.6
2023-01-06T23:08:05.601Z,1.5
2023-01-06T23:13:09.168Z,1.4
2023-01-06T23:18:33.219Z,1.3
2023-01-06T23:23:42.750Z,1.1
2023-01-06T23:29:06.332Z,0.9
2023-01-06T23:33:58.705Z,0.8
2023-01-06T23:39:21.511Z,0.6
2023-01-06T23:44:54.495Z,0.4
2023-01-06T23:49:31.744Z,0.3
2023-01-06T23:54:54.828Z,0.1
